TNCE

Details ICAO TNCE (EUX)
Name St Eustatius/F D Roosevelt
Region Caribbean Netherlands, Aruba, Curaçao, Sint Maarten
Timezone America/Curacao (UTC-4.0)
Plans Departing 9
Arriving 15
Stats Elevation 129 ft / 39 m (AMSL)
Location 17.496492° -62.979439°
Runways 1
Magnetic Variation 14.361° W
Sunrise 2017-12-16 10:36:26 UTC / 2017-12-16 06:36:26 Local
Sunset 2017-12-16 21:41:36 UTC / 2017-12-16 17:41:36 Local
Advertisement - Login to hide

Runways

ID Width Length Bearing (true) Bearing (mag) Surface Threshold Offset Overrun Length
06 98 ft / 30 m 4,302 ft / 1,311 m 49.97° 64.33° Asphalt 0 ft / 0 m 0 ft / 0 m
24 98 ft / 30 m 4,302 ft / 1,311 m 229.97° 244.33° Asphalt 0 ft / 0 m 0 ft / 0 m

Map

Weather


0- 5 10 15 20 25 30 35+ Temperature / ° C

Clouds and Precipitation
Forecast for 2017-12-16 12:00 UTC. Updated 12 minutes ago

Ground ~20,000 ft ~40,000 ft Winds

METAR

TNCE 161055Z AUTO 06014KT 030V090 //// // ///////// 26/22 Q1017 RE//

TAF

Not found

Frequencies

Unicom 118.10 MHz CTAF
Warning: Do not use this data for real-world aviation or navigation. No guarantee of current accuracy is given.